sensor_id;sensor_type;location;lat;lon;timestamp;pressure;altitude;pressure_sealevel;temperature;humidity
45275;BME280;31019;43.780;25.948;2023-01-30T00:01:13;101574.06;;;-0.25;100.00
45275;BME280;31019;43.780;25.948;2023-01-30T00:03:42;101577.84;;;-0.29;100.00
45275;BME280;31019;43.780;25.948;2023-01-30T00:06:08;101566.91;;;-0.34;100.00
45275;BME280;31019;43.780;25.948;2023-01-30T00:08:35;101570.34;;;-0.34;100.00
45275;BME280;31019;43.780;25.948;2023-01-30T00:11:03;101578.09;;;-0.32;100.00
45275;BME280;31019;43.780;25.948;2023-01-30T00:13:30;101570.19;;;-0.43;100.00
45275;BME280;31019;43.780;25.948;2023-01-30T00:15:57;101577.94;;;-0.31;100.00
45275;BME280;31019;43.780;25.948;2023-01-30T00:18:24;101564.25;;;-0.46;100.00
45275;BME280;31019;43.780;25.948;2023-01-30T00:20:55;101560.41;;;-0.29;100.00
45275;BME280;31019;43.780;25.948;2023-01-30T00:23:22;101561.28;;;-0.52;100.00
45275;BME280;31019;43.780;25.948;2023-01-30T00:25:49;101569.16;;;-0.41;100.00
45275;BME280;31019;43.780;25.948;2023-01-30T00:28:15;101566.59;;;-0.30;100.00
45275;BME280;31019;43.780;25.948;2023-01-30T00:30:42;101558.56;;;-0.39;100.00
45275;BME280;31019;43.780;25.948;2023-01-30T00:33:09;101556.25;;;-0.31;100.00
45275;BME280;31019;43.780;25.948;2023-01-30T00:35:36;101559.06;;;-0.34;100.00
45275;BME280;31019;43.780;25.948;2023-01-30T00:38:04;101559.66;;;-0.31;100.00
45275;BME280;31019;43.780;25.948;2023-01-30T00:40:31;101553.63;;;-0.31;100.00
45275;BME280;31019;43.780;25.948;2023-01-30T00:42:57;101549.00;;;-0.39;100.00
45275;BME280;31019;43.780;25.948;2023-01-30T00:45:43;101545.44;;;-0.38;100.00
45275;BME280;31019;43.780;25.948;2023-01-30T00:48:27;101550.75;;;-0.39;100.00
45275;BME280;31019;43.780;25.948;2023-01-30T00:50:54;101545.06;;;-0.44;100.00
45275;BME280;31019;43.780;25.948;2023-01-30T00:53:22;101553.03;;;-0.35;100.00
45275;BME280;31019;43.780;25.948;2023-01-30T00:55:49;101541.16;;;-0.28;100.00
45275;BME280;31019;43.780;25.948;2023-01-30T00:58:16;101537.03;;;-0.19;100.00
45275;BME280;31019;43.780;25.948;2023-01-30T01:00:44;101542.84;;;-0.15;100.00
45275;BME280;31019;43.780;25.948;2023-01-30T01:03:12;101541.78;;;-0.24;100.00
45275;BME280;31019;43.780;25.948;2023-01-30T01:05:38;101539.28;;;-0.26;100.00
45275;BME280;31019;43.780;25.948;2023-01-30T01:08:05;101530.63;;;-0.26;100.00
45275;BME280;31019;43.780;25.948;2023-01-30T01:10:33;101524.66;;;-0.39;100.00
45275;BME280;31019;43.780;25.948;2023-01-30T01:13:01;101530.50;;;-0.36;100.00
45275;BME280;31019;43.780;25.948;2023-01-30T01:15:28;101527.66;;;-0.33;100.00
45275;BME280;31019;43.780;25.948;2023-01-30T01:17:55;101518.88;;;-0.20;100.00
45275;BME280;31019;43.780;25.948;2023-01-30T01:20:22;101523.97;;;-0.19;100.00
45275;BME280;31019;43.780;25.948;2023-01-30T01:22:52;101519.13;;;-0.12;100.00
45275;BME280;31019;43.780;25.948;2023-01-30T01:25:19;101520.56;;;-0.08;100.00
45275;BME280;31019;43.780;25.948;2023-01-30T01:27:48;101523.41;;;-0.11;100.00
45275;BME280;31019;43.780;25.948;2023-01-30T01:30:15;101522.72;;;-0.02;100.00
45275;BME280;31019;43.780;25.948;2023-01-30T01:32:42;101515.59;;;0.22;100.00
45275;BME280;31019;43.780;25.948;2023-01-30T01:35:09;101521.63;;;-0.11;100.00
45275;BME280;31019;43.780;25.948;2023-01-30T01:37:36;101515.34;;;-0.08;100.00
45275;BME280;31019;43.780;25.948;2023-01-30T01:40:04;101522.00;;;0.07;100.00
45275;BME280;31019;43.780;25.948;2023-01-30T01:42:50;101508.59;;;0.01;100.00
45275;BME280;31019;43.780;25.948;2023-01-30T01:45:19;101512.38;;;-0.04;100.00
45275;BME280;31019;43.780;25.948;2023-01-30T01:47:53;101516.06;;;0.05;100.00
45275;BME280;31019;43.780;25.948;2023-01-30T01:50:25;101517.13;;;0.03;100.00
45275;BME280;31019;43.780;25.948;2023-01-30T01:52:53;101508.94;;;-0.04;100.00
45275;BME280;31019;43.780;25.948;2023-01-30T01:55:23;101513.09;;;-0.02;100.00
45275;BME280;31019;43.780;25.948;2023-01-30T01:57:54;101505.03;;;0.02;100.00
45275;BME280;31019;43.780;25.948;2023-01-30T02:00:24;101515.13;;;0.06;100.00
45275;BME280;31019;43.780;25.948;2023-01-30T02:02:55;101508.81;;;-0.03;100.00
45275;BME280;31019;43.780;25.948;2023-01-30T02:05:24;101503.69;;;-0.04;100.00
45275;BME280;31019;43.780;25.948;2023-01-30T02:07:54;101506.53;;;-0.18;100.00
45275;BME280;31019;43.780;25.948;2023-01-30T02:10:26;101498.00;;;-0.20;100.00
45275;BME280;31019;43.780;25.948;2023-01-30T02:12:57;101499.69;;;-0.08;100.00
45275;BME280;31019;43.780;25.948;2023-01-30T02:15:24;101491.47;;;-0.15;100.00
45275;BME280;31019;43.780;25.948;2023-01-30T02:17:51;101499.69;;;0.26;100.00
45275;BME280;31019;43.780;25.948;2023-01-30T02:20:24;101503.94;;;-0.07;100.00
45275;BME280;31019;43.780;25.948;2023-01-30T02:23:12;101494.91;;;-0.03;100.00
45275;BME280;31019;43.780;25.948;2023-01-30T02:28:51;101484.47;;;-0.14;100.00
45275;BME280;31019;43.780;25.948;2023-01-30T02:31:27;101484.47;;;0.08;100.00
45275;BME280;31019;43.780;25.948;2023-01-30T02:34:08;101483.88;;;-0.07;100.00
45275;BME280;31019;43.780;25.948;2023-01-30T02:36:45;101484.25;;;0.00;100.00
45275;BME280;31019;43.780;25.948;2023-01-30T02:39:25;101485.41;;;-0.04;100.00
45275;BME280;31019;43.780;25.948;2023-01-30T02:42:00;101484.09;;;-0.10;100.00
45275;BME280;31019;43.780;25.948;2023-01-30T02:44:38;101475.09;;;-0.06;100.00
45275;BME280;31019;43.780;25.948;2023-01-30T02:47:13;101492.31;;;-0.14;100.00
45275;BME280;31019;43.780;25.948;2023-01-30T02:49:41;101484.94;;;0.02;100.00
45275;BME280;31019;43.780;25.948;2023-01-30T02:52:12;101485.78;;;0.03;100.00
45275;BME280;31019;43.780;25.948;2023-01-30T02:54:39;101483.28;;;-0.10;100.00
45275;BME280;31019;43.780;25.948;2023-01-30T02:57:16;101489.00;;;-0.05;100.00
45275;BME280;31019;43.780;25.948;2023-01-30T02:59:47;101490.41;;;-0.01;100.00
45275;BME280;31019;43.780;25.948;2023-01-30T03:08:57;101493.72;;;-0.10;100.00
45275;BME280;31019;43.780;25.948;2023-01-30T03:11:39;101490.06;;;-0.08;100.00
45275;BME280;31019;43.780;25.948;2023-01-30T03:14:13;101492.28;;;-0.03;100.00
45275;BME280;31019;43.780;25.948;2023-01-30T03:16:46;101486.97;;;-0.13;100.00
45275;BME280;31019;43.780;25.948;2023-01-30T03:19:23;101485.63;;;-0.18;100.00
45275;BME280;31019;43.780;25.948;2023-01-30T03:22:06;101489.56;;;-0.13;100.00
45275;BME280;31019;43.780;25.948;2023-01-30T03:24:48;101487.66;;;-0.22;100.00
45275;BME280;31019;43.780;25.948;2023-01-30T03:27:24;101474.50;;;-0.09;100.00
45275;BME280;31019;43.780;25.948;2023-01-30T03:30:02;101480.53;;;-0.31;100.00
45275;BME280;31019;43.780;25.948;2023-01-30T03:32:43;101482.34;;;-0.20;100.00
45275;BME280;31019;43.780;25.948;2023-01-30T03:35:14;101478.97;;;-0.34;100.00
45275;BME280;31019;43.780;25.948;2023-01-30T03:38:00;101481.34;;;-0.31;100.00
45275;BME280;31019;43.780;25.948;2023-01-30T03:40:43;101483.88;;;-0.18;100.00
45275;BME280;31019;43.780;25.948;2023-01-30T03:43:13;101475.78;;;-0.26;100.00
45275;BME280;31019;43.780;25.948;2023-01-30T03:45:56;101486.97;;;-0.13;100.00
45275;BME280;31019;43.780;25.948;2023-01-30T03:48:36;101476.88;;;-0.17;100.00
45275;BME280;31019;43.780;25.948;2023-01-30T03:51:19;101468.31;;;-0.19;100.00
45275;BME280;31019;43.780;25.948;2023-01-30T03:53:46;101472.81;;;-0.21;100.00
45275;BME280;31019;43.780;25.948;2023-01-30T03:56:36;101468.22;;;-0.18;100.00
45275;BME280;31019;43.780;25.948;2023-01-30T03:59:13;101462.75;;;-0.26;100.00
45275;BME280;31019;43.780;25.948;2023-01-30T04:01:42;101458.22;;;-0.35;100.00
45275;BME280;31019;43.780;25.948;2023-01-30T04:04:38;101459.53;;;-0.30;100.00
45275;BME280;31019;43.780;25.948;2023-01-30T04:07:12;101457.97;;;-0.43;100.00
45275;BME280;31019;43.780;25.948;2023-01-30T04:09:51;101454.66;;;-0.34;100.00
45275;BME280;31019;43.780;25.948;2023-01-30T04:12:22;101454.75;;;-0.47;100.00
45275;BME280;31019;43.780;25.948;2023-01-30T04:15:14;101445.16;;;-0.47;100.00
45275;BME280;31019;43.780;25.948;2023-01-30T04:17:50;101443.38;;;-0.35;100.00
45275;BME280;31019;43.780;25.948;2023-01-30T04:20:18;101442.53;;;-0.47;100.00
45275;BME280;31019;43.780;25.948;2023-01-30T04:22:50;101441.72;;;-0.36;100.00
45275;BME280;31019;43.780;25.948;2023-01-30T04:28:48;101441.00;;;-0.38;100.00
45275;BME280;31019;43.780;25.948;2023-01-30T04:31:24;101443.97;;;-0.31;100.00
45275;BME280;31019;43.780;25.948;2023-01-30T04:34:08;101441.03;;;-0.27;100.00
45275;BME280;31019;43.780;25.948;2023-01-30T04:36:44;101450.38;;;-0.35;100.00
45275;BME280;31019;43.780;25.948;2023-01-30T04:39:12;101451.56;;;-0.28;100.00
45275;BME280;31019;43.780;25.948;2023-01-30T04:41:46;101445.44;;;-0.27;100.00
45275;BME280;31019;43.780;25.948;2023-01-30T04:44:25;101451.69;;;-0.41;100.00
45275;BME280;31019;43.780;25.948;2023-01-30T04:47:04;101448.00;;;-0.38;100.00
45275;BME280;31019;43.780;25.948;2023-01-30T04:49:33;101447.66;;;-0.34;100.00
45275;BME280;31019;43.780;25.948;2023-01-30T04:52:02;101447.06;;;-0.37;100.00
45275;BME280;31019;43.780;25.948;2023-01-30T04:54:47;101458.09;;;-0.45;100.00
45275;BME280;31019;43.780;25.948;2023-01-30T04:57:40;101460.56;;;-0.43;100.00
45275;BME280;31019;43.780;25.948;2023-01-30T05:00:22;101452.38;;;-0.50;100.00
45275;BME280;31019;43.780;25.948;2023-01-30T05:03:00;101456.78;;;-0.51;100.00
45275;BME280;31019;43.780;25.948;2023-01-30T05:05:30;101451.19;;;-0.46;100.00
45275;BME280;31019;43.780;25.948;2023-01-30T05:08:07;101450.38;;;-0.35;100.00
45275;BME280;31019;43.780;25.948;2023-01-30T05:10:48;101449.31;;;-0.44;100.00
45275;BME280;31019;43.780;25.948;2023-01-30T05:13:21;101457.72;;;-0.40;100.00
45275;BME280;31019;43.780;25.948;2023-01-30T05:15:54;101445.28;;;-0.48;100.00
45275;BME280;31019;43.780;25.948;2023-01-30T05:18:46;101446.81;;;-0.57;100.00
45275;BME280;31019;43.780;25.948;2023-01-30T05:21:32;101449.41;;;-0.46;100.00
45275;BME280;31019;43.780;25.948;2023-01-30T05:24:05;101452.38;;;-0.50;100.00
45275;BME280;31019;43.780;25.948;2023-01-30T05:44:36;101447.53;;;-0.43;100.00
45275;BME280;31019;43.780;25.948;2023-01-30T05:48:05;101452.88;;;-0.45;100.00
45275;BME280;31019;43.780;25.948;2023-01-30T05:50:37;101454.31;;;-0.30;100.00
45275;BME280;31019;43.780;25.948;2023-01-30T05:53:05;101452.88;;;-0.34;100.00
45275;BME280;31019;43.780;25.948;2023-01-30T05:58:49;101461.16;;;-0.40;100.00
45275;BME280;31019;43.780;25.948;2023-01-30T06:01:27;101460.09;;;-0.37;100.00
45275;BME280;31019;43.780;25.948;2023-01-30T06:03:58;101453.34;;;-0.29;100.00
45275;BME280;31019;43.780;25.948;2023-01-30T06:06:45;101450.03;;;-0.31;100.00
45275;BME280;31019;43.780;25.948;2023-01-30T06:09:16;101453.25;;;-0.38;100.00
45275;BME280;31019;43.780;25.948;2023-01-30T06:12:07;101445.66;;;-0.30;100.00
45275;BME280;31019;43.780;25.948;2023-01-30T06:14:45;101444.09;;;-0.21;100.00
45275;BME280;31019;43.780;25.948;2023-01-30T06:17:16;101438.53;;;-0.28;100.00
45275;BME280;31019;43.780;25.948;2023-01-30T06:19:55;101436.50;;;-0.13;100.00
45275;BME280;31019;43.780;25.948;2023-01-30T06:22:41;101447.53;;;-0.10;100.00
45275;BME280;31019;43.780;25.948;2023-01-30T06:25:21;101437.13;;;-0.21;100.00
45275;BME280;31019;43.780;25.948;2023-01-30T06:28:03;101440.56;;;-0.20;100.00
45275;BME280;31019;43.780;25.948;2023-01-30T06:30:41;101440.31;;;-0.06;100.00
45275;BME280;31019;43.780;25.948;2023-01-30T06:33:09;101432.69;;;-0.09;100.00
45275;BME280;31019;43.780;25.948;2023-01-30T06:35:52;101440.19;;;-0.05;100.00
45275;BME280;31019;43.780;25.948;2023-01-30T06:38:19;101432.59;;;-0.08;100.00
45275;BME280;31019;43.780;25.948;2023-01-30T06:41:19;101436.75;;;-0.05;100.00
45275;BME280;31019;43.780;25.948;2023-01-30T06:43:56;101435.31;;;0.02;100.00
45275;BME280;31019;43.780;25.948;2023-01-30T06:46:39;101431.88;;;-0.10;100.00
45275;BME280;31019;43.780;25.948;2023-01-30T06:49:13;101434.25;;;-0.07;100.00
45275;BME280;31019;43.780;25.948;2023-01-30T06:52:00;101434.72;;;-0.02;100.00
45275;BME280;31019;43.780;25.948;2023-01-30T06:54:38;101442.81;;;-0.05;100.00
45275;BME280;31019;43.780;25.948;2023-01-30T06:57:14;101442.91;;;0.05;100.00
45275;BME280;31019;43.780;25.948;2023-01-30T06:59:54;101446.47;;;-0.07;100.00
45275;BME280;31019;43.780;25.948;2023-01-30T07:02:38;101447.41;;;-0.31;100.00
45275;BME280;31019;43.780;25.948;2023-01-30T07:05:07;101447.19;;;-0.16;100.00
45275;BME280;31019;43.780;25.948;2023-01-30T07:08:07;101451.00;;;-0.20;100.00
45275;BME280;31019;43.780;25.948;2023-01-30T07:10:34;101448.63;;;-0.01;100.00
45275;BME280;31019;43.780;25.948;2023-01-30T07:13:13;101444.94;;;-0.10;100.00
45275;BME280;31019;43.780;25.948;2023-01-30T07:15:51;101449.91;;;-0.07;100.00
45275;BME280;31019;43.780;25.948;2023-01-30T07:18:25;101445.91;;;-0.11;100.00
45275;BME280;31019;43.780;25.948;2023-01-30T07:20:58;101455.72;;;-0.03;100.00
45275;BME280;31019;43.780;25.948;2023-01-30T07:23:28;101448.97;;;0.06;100.00
45275;BME280;31019;43.780;25.948;2023-01-30T07:29:35;101451.91;;;0.23;100.00
45275;BME280;31019;43.780;25.948;2023-01-30T07:32:04;101444.81;;;0.14;100.00
45275;BME280;31019;43.780;25.948;2023-01-30T07:34:31;101445.75;;;0.02;100.00
45275;BME280;31019;43.780;25.948;2023-01-30T07:37:04;101452.88;;;0.22;100.00
45275;BME280;31019;43.780;25.948;2023-01-30T07:39:35;101452.88;;;0.11;100.00
45275;BME280;31019;43.780;25.948;2023-01-30T07:42:17;101447.41;;;0.26;100.00
45275;BME280;31019;43.780;25.948;2023-01-30T07:45:06;101454.19;;;0.28;100.00
45275;BME280;31019;43.780;25.948;2023-01-30T07:47:48;101446.19;;;0.41;100.00
45275;BME280;31019;43.780;25.948;2023-01-30T07:50:17;101440.97;;;0.30;100.00
45275;BME280;31019;43.780;25.948;2023-01-30T07:53:03;101436.94;;;0.37;100.00
45275;BME280;31019;43.780;25.948;2023-01-30T07:55:42;101435.75;;;0.30;100.00
45275;BME280;31019;43.780;25.948;2023-01-30T07:58:12;101432.56;;;0.15;100.00
45275;BME280;31019;43.780;25.948;2023-01-30T08:01:05;101434.47;;;0.24;100.00
45275;BME280;31019;43.780;25.948;2023-01-30T08:03:40;101426.28;;;0.29;100.00
45275;BME280;31019;43.780;25.948;2023-01-30T08:06:20;101432.69;;;0.25;100.00
45275;BME280;31019;43.780;25.948;2023-01-30T08:08:48;101429.22;;;0.35;100.00
45275;BME280;31019;43.780;25.948;2023-01-30T08:11:26;101432.69;;;0.25;100.00
45275;BME280;31019;43.780;25.948;2023-01-30T08:14:16;101432.22;;;0.19;100.00
45275;BME280;31019;43.780;25.948;2023-01-30T08:16:55;101432.06;;;0.43;100.00
45275;BME280;31019;43.780;25.948;2023-01-30T08:19:37;101420.06;;;0.41;100.00
45275;BME280;31019;43.780;25.948;2023-01-30T08:22:06;101429.69;;;0.40;100.00
45275;BME280;31019;43.780;25.948;2023-01-30T08:24:47;101437.44;;;0.19;100.00
45275;BME280;31019;43.780;25.948;2023-01-30T08:27:40;101428.47;;;0.56;100.00
45275;BME280;31019;43.780;25.948;2023-01-30T08:30:15;101430.41;;;0.42;100.00
45275;BME280;31019;43.780;25.948;2023-01-30T08:32:55;101434.69;;;0.43;100.00
45275;BME280;31019;43.780;25.948;2023-01-30T08:35:34;101425.19;;;0.42;100.00
45275;BME280;31019;43.780;25.948;2023-01-30T08:38:00;101429.53;;;0.53;100.00
45275;BME280;31019;43.780;25.948;2023-01-30T08:43:27;101419.00;;;0.43;100.00
45275;BME280;31019;43.780;25.948;2023-01-30T08:45:55;101422.28;;;0.57;100.00
45275;BME280;31019;43.780;25.948;2023-01-30T08:48:30;101412.94;;;0.43;100.00
45275;BME280;31019;43.780;25.948;2023-01-30T08:51:06;101415.56;;;0.32;100.00
45275;BME280;31019;43.780;25.948;2023-01-30T08:54:03;101411.25;;;0.42;100.00
45275;BME280;31019;43.780;25.948;2023-01-30T08:56:40;101414.16;;;0.71;100.00
45275;BME280;31019;43.780;25.948;2023-01-30T09:01:32;101401.25;;;0.58;100.00
45275;BME280;31019;43.780;25.948;2023-01-30T09:03:58;101397.75;;;0.37;100.00
45275;BME280;31019;43.780;25.948;2023-01-30T09:09:10;101401.59;;;0.54;100.00
45275;BME280;31019;43.780;25.948;2023-01-30T09:11:38;101396.06;;;0.36;100.00
45275;BME280;31019;43.780;25.948;2023-01-30T09:14:10;101399.97;;;0.53;100.00
45275;BME280;31019;43.780;25.948;2023-01-30T09:16:51;101393.44;;;0.47;100.00
45275;BME280;31019;43.780;25.948;2023-01-30T09:19:20;101381.34;;;0.35;100.00
45275;BME280;31019;43.780;25.948;2023-01-30T09:21:47;101386.41;;;0.15;100.00
45275;BME280;31019;43.780;25.948;2023-01-30T09:24:15;101375.81;;;0.17;100.00
45275;BME280;31019;43.780;25.948;2023-01-30T09:26:41;101378.81;;;0.44;100.00
45275;BME280;31019;43.780;25.948;2023-01-30T09:29:09;101366.13;;;0.72;100.00
45275;BME280;31019;43.780;25.948;2023-01-30T09:31:36;101372.09;;;0.63;100.00
45275;BME280;31019;43.780;25.948;2023-01-30T09:34:04;101372.28;;;0.50;100.00
45275;BME280;31019;43.780;25.948;2023-01-30T09:36:31;101366.59;;;1.19;100.00
45275;BME280;31019;43.780;25.948;2023-01-30T09:38:58;101365.91;;;0.43;100.00
45275;BME280;31019;43.780;25.948;2023-01-30T09:41:47;101361.47;;;0.97;100.00
45275;BME280;31019;43.780;25.948;2023-01-30T09:44:37;101355.19;;;0.46;100.00
45275;BME280;31019;43.780;25.948;2023-01-30T09:47:10;101363.41;;;0.30;100.00
45275;BME280;31019;43.780;25.948;2023-01-30T09:49:46;101355.81;;;0.27;100.00
45275;BME280;31019;43.780;25.948;2023-01-30T09:52:26;101352.75;;;0.54;100.00
45275;BME280;31019;43.780;25.948;2023-01-30T09:54:59;101346.56;;;0.34;100.00
45275;BME280;31019;43.780;25.948;2023-01-30T09:57:28;101337.59;;;0.16;100.00
45275;BME280;31019;43.780;25.948;2023-01-30T09:59:57;101341.94;;;0.59;100.00
45275;BME280;31019;43.780;25.948;2023-01-30T10:02:34;101331.22;;;0.30;100.00
45275;BME280;31019;43.780;25.948;2023-01-30T10:05:05;101330.47;;;0.39;100.00
45275;BME280;31019;43.780;25.948;2023-01-30T10:07:41;101333.03;;;0.29;100.00
45275;BME280;31019;43.780;25.948;2023-01-30T10:10:17;101323.03;;;0.34;100.00
45275;BME280;31019;43.780;25.948;2023-01-30T10:12:53;101314.25;;;0.03;100.00
45275;BME280;31019;43.780;25.948;2023-01-30T10:15:42;101316.94;;;0.13;100.00
45275;BME280;31019;43.780;25.948;2023-01-30T10:18:44;101315.91;;;-0.07;100.00
45275;BME280;31019;43.780;25.948;2023-01-30T10:21:22;101307.91;;;0.06;100.00
45275;BME280;31019;43.780;25.948;2023-01-30T10:23:59;101300.19;;;0.36;100.00
45275;BME280;31019;43.780;25.948;2023-01-30T10:26:31;101301.41;;;0.64;100.00
45275;BME280;31019;43.780;25.948;2023-01-30T10:29:01;101292.13;;;0.39;100.00
45275;BME280;31019;43.780;25.948;2023-01-30T10:31:34;101285.69;;;0.43;100.00
45275;BME280;31019;43.780;25.948;2023-01-30T10:34:04;101292.84;;;0.62;100.00
45275;BME280;31019;43.780;25.948;2023-01-30T10:36:36;101284.38;;;0.49;100.00
45275;BME280;31019;43.780;25.948;2023-01-30T10:39:19;101284.59;;;0.25;100.00
45275;BME280;31019;43.780;25.948;2023-01-30T10:41:52;101284.63;;;-0.30;100.00
45275;BME280;31019;43.780;25.948;2023-01-30T10:44:21;101274.78;;;-0.37;100.00
45275;BME280;31019;43.780;25.948;2023-01-30T10:47:05;101276.63;;;-0.17;100.00
45275;BME280;31019;43.780;25.948;2023-01-30T10:49:39;101270.84;;;-0.32;100.00
45275;BME280;31019;43.780;25.948;2023-01-30T10:52:21;101262.56;;;1.11;100.00
45275;BME280;31019;43.780;25.948;2023-01-30T10:55:04;101253.91;;;-0.37;100.00
45275;BME280;31019;43.780;25.948;2023-01-30T10:57:42;101243.41;;;-0.15;100.00
45275;BME280;31019;43.780;25.948;2023-01-30T11:00:17;101253.78;;;-0.47;100.00
45275;BME280;31019;43.780;25.948;2023-01-30T11:02:57;101244.38;;;0.37;100.00
45275;BME280;31019;43.780;25.948;2023-01-30T11:05:32;101231.03;;;-0.13;100.00
45275;BME280;31019;43.780;25.948;2023-01-30T11:08:09;101232.44;;;-0.52;100.00
45275;BME280;31019;43.780;25.948;2023-01-30T11:10:38;101229.00;;;-0.41;100.00
45275;BME280;31019;43.780;25.948;2023-01-30T11:13:13;101216.13;;;0.10;100.00
45275;BME280;31019;43.780;25.948;2023-01-30T11:15:43;101218.31;;;-0.38;100.00
45275;BME280;31019;43.780;25.948;2023-01-30T11:18:11;101210.50;;;-0.61;100.00
45275;BME280;31019;43.780;25.948;2023-01-30T11:20:39;101206.41;;;-1.08;100.00
45275;BME280;31019;43.780;25.948;2023-01-30T11:23:22;101209.00;;;-0.63;100.00
45275;BME280;31019;43.780;25.948;2023-01-30T11:25:51;101197.66;;;-0.30;100.00
45275;BME280;31019;43.780;25.948;2023-01-30T11:28:19;101198.66;;;0.74;100.00
45275;BME280;31019;43.780;25.948;2023-01-30T11:30:52;101181.66;;;0.58;100.00
45275;BME280;31019;43.780;25.948;2023-01-30T11:33:19;101187.22;;;-0.30;100.00
45275;BME280;31019;43.780;25.948;2023-01-30T11:35:52;101185.53;;;0.01;100.00
45275;BME280;31019;43.780;25.948;2023-01-30T11:38:23;101183.91;;;0.73;100.00
45275;BME280;31019;43.780;25.948;2023-01-30T11:41:01;101179.75;;;-0.46;100.00
45275;BME280;31019;43.780;25.948;2023-01-30T11:43:29;101186.22;;;-0.18;100.00
45275;BME280;31019;43.780;25.948;2023-01-30T11:45:56;101174.53;;;0.18;100.00
45275;BME280;31019;43.780;25.948;2023-01-30T11:48:26;101176.25;;;-0.56;100.00
45275;BME280;31019;43.780;25.948;2023-01-30T11:50:57;101174.38;;;-0.65;100.00
45275;BME280;31019;43.780;25.948;2023-01-30T11:53:32;101176.06;;;0.00;100.00
45275;BME280;31019;43.780;25.948;2023-01-30T11:56:04;101168.50;;;-0.14;100.00
45275;BME280;31019;43.780;25.948;2023-01-30T11:58:34;101159.03;;;0.06;100.00
45275;BME280;31019;43.780;25.948;2023-01-30T12:01:02;101155.66;;;0.66;100.00
45275;BME280;31019;43.780;25.948;2023-01-30T12:03:30;101159.47;;;0.32;100.00
45275;BME280;31019;43.780;25.948;2023-01-30T12:05:58;101154.03;;;-0.18;100.00
45275;BME280;31019;43.780;25.948;2023-01-30T12:08:34;101148.81;;;-0.51;100.00
45275;BME280;31019;43.780;25.948;2023-01-30T12:11:02;101135.28;;;-0.44;100.00
45275;BME280;31019;43.780;25.948;2023-01-30T12:13:35;101126.53;;;-0.02;100.00
45275;BME280;31019;43.780;25.948;2023-01-30T12:16:14;101136.06;;;-0.33;100.00
45275;BME280;31019;43.780;25.948;2023-01-30T12:18:47;101130.81;;;-0.01;100.00
45275;BME280;31019;43.780;25.948;2023-01-30T12:21:27;101125.16;;;0.15;100.00
45275;BME280;31019;43.780;25.948;2023-01-30T12:24:07;101122.41;;;0.78;100.00
45275;BME280;31019;43.780;25.948;2023-01-30T12:26:42;101130.47;;;-0.07;100.00
45275;BME280;31019;43.780;25.948;2023-01-30T12:29:21;101115.56;;;0.26;100.00
45275;BME280;31019;43.780;25.948;2023-01-30T12:31:59;101115.06;;;0.32;100.00
45275;BME280;31019;43.780;25.948;2023-01-30T12:34:27;101114.19;;;0.21;100.00
45275;BME280;31019;43.780;25.948;2023-01-30T12:37:03;101112.31;;;0.33;100.00
45275;BME280;31019;43.780;25.948;2023-01-30T12:39:45;101120.06;;;0.75;100.00
45275;BME280;31019;43.780;25.948;2023-01-30T12:42:29;101112.19;;;0.35;100.00
45275;BME280;31019;43.780;25.948;2023-01-30T12:45:10;101092.44;;;0.82;100.00
45275;BME280;31019;43.780;25.948;2023-01-30T12:47:57;101096.16;;;0.49;100.00
45275;BME280;31019;43.780;25.948;2023-01-30T12:50:38;101095.22;;;-0.02;100.00
45275;BME280;31019;43.780;25.948;2023-01-30T12:53:25;101084.78;;;0.29;100.00
45275;BME280;31019;43.780;25.948;2023-01-30T12:56:08;101081.16;;;0.20;100.00
45275;BME280;31019;43.780;25.948;2023-01-30T12:58:44;101076.09;;;0.19;100.00
45275;BME280;31019;43.780;25.948;2023-01-30T13:01:19;101072.38;;;0.21;100.00
45275;BME280;31019;43.780;25.948;2023-01-30T13:03:57;101075.81;;;0.22;100.00
45275;BME280;31019;43.780;25.948;2023-01-30T13:06:45;101063.59;;;0.22;100.00
45275;BME280;31019;43.780;25.948;2023-01-30T13:09:35;101064.69;;;0.30;100.00
45275;BME280;31019;43.780;25.948;2023-01-30T13:12:11;101059.63;;;0.28;100.00
45275;BME280;31019;43.780;25.948;2023-01-30T13:14:44;101060.81;;;0.24;100.00
45275;BME280;31019;43.780;25.948;2023-01-30T13:17:25;101062.38;;;0.36;100.00
45275;BME280;31019;43.780;25.948;2023-01-30T13:20:02;101052.03;;;0.56;100.00
45275;BME280;31019;43.780;25.948;2023-01-30T13:22:36;101061.66;;;0.55;100.00
45275;BME280;31019;43.780;25.948;2023-01-30T13:25:16;101059.38;;;0.31;100.00
45275;BME280;31019;43.780;25.948;2023-01-30T13:27:52;101066.13;;;0.34;100.00
45275;BME280;31019;43.780;25.948;2023-01-30T13:30:21;101056.94;;;1.09;100.00
45275;BME280;31019;43.780;25.948;2023-01-30T13:32:52;101052.16;;;0.54;100.00
45275;BME280;31019;43.780;25.948;2023-01-30T13:35:25;101048.09;;;0.31;100.00
45275;BME280;31019;43.780;25.948;2023-01-30T13:37:55;101046.84;;;0.35;100.00
45275;BME280;31019;43.780;25.948;2023-01-30T13:40:25;101041.34;;;0.28;100.00
45275;BME280;31019;43.780;25.948;2023-01-30T13:42:58;101033.09;;;0.73;100.00
45275;BME280;31019;43.780;25.948;2023-01-30T13:45:29;101032.88;;;0.45;100.00
45275;BME280;31019;43.780;25.948;2023-01-30T13:48:11;101027.34;;;0.39;100.00
45275;BME280;31019;43.780;25.948;2023-01-30T13:51:05;101038.16;;;0.25;100.00
45275;BME280;31019;43.780;25.948;2023-01-30T13:53:41;101027.53;;;0.16;100.00
45275;BME280;31019;43.780;25.948;2023-01-30T13:56:16;101028.41;;;0.36;100.00
45275;BME280;31019;43.780;25.948;2023-01-30T13:58:51;101023.44;;;0.23;100.00
45275;BME280;31019;43.780;25.948;2023-01-30T14:01:19;101024.16;;;0.05;100.00